KORF/ORF METAR and TAF weather

Enter ICAO airport designator
Station Type Date Time Source
KORF METAR 2019/11/15 04:51 UTC NOAA

KORF 150451Z 02008KT 10SM FEW050 BKN075 OVC090 11/08 A3026 RMK AO2 SLP245 T01110078 401111028


Station Type Date Time Source
KORF Decoded METAR 2019/11/15 04:51 UTC NOAA

NORFOLK INTERNATIONAL AIRPORT , VA, United States (KORF) 36-54N 076-12W 14M
Nov 14, 2019 - 11:51 PM EST / 2019.11.15 0451 UTC
Wind: from the NNE (020 degrees) at 9 MPH (8 KT):0
Visibility: 10 mile(s):0
Sky conditions: overcast
Temperature: 52.0 F (11.1 C)
Dew Point: 46.0 F (7.8 C)
Relative Humidity: 80%
Pressure (altimeter): 30.26 in. Hg (1024 hPa)
ob: KORF 150451Z 02008KT 10SM FEW050 BKN075 OVC090 11/08 A3026 RMK AO2 SLP245 T01110078 401111028
cycle: 5

Station Type Date Time Source
KORF TAF 2019/11/15 03:06 UTC NOAA

TAF
AMD KORF 150305Z 1503/1524 36008KT P6SM BKN020 OVC060
FM150400 36006KT P6SM VCSH OVC025
FM150600 01006KT 5SM -RA OVC020
FM150900 02007KT 5SM -RA OVC015
FM151600 02011G20KT 5SM -RA OVC010

Example: see airport list